createdAt,value
2022-08-11T00:02:34.056Z,101975.09
2022-08-11T00:07:45.162Z,101983.38
2022-08-11T00:12:52.365Z,101976.31
2022-08-11T00:17:57.969Z,101974.59
2022-08-11T00:23:07.231Z,101977.34
2022-08-11T00:28:24.914Z,101977.66
2022-08-11T00:33:44.215Z,101976.03
2022-08-11T00:38:52.652Z,101978.78
2022-08-11T00:44:23.400Z,101982.59
2022-08-11T00:49:39.480Z,101980.94
2022-08-11T00:55:18.344Z,101973.94
2022-08-11T01:00:23.118Z,101981.00
2022-08-11T01:05:51.094Z,101982.81
2022-08-11T01:11:23.547Z,101981.97
2022-08-11T01:17:04.183Z,101987.44
2022-08-11T01:23:00.002Z,101993.88
2022-08-11T01:28:36.277Z,101997.59
2022-08-11T01:34:29.674Z,101993.31
2022-08-11T01:40:10.639Z,102004.97
2022-08-11T01:45:31.334Z,102006.06
2022-08-11T01:50:51.760Z,102004.31
2022-08-11T01:56:09.451Z,101993.72
2022-08-11T02:01:33.367Z,101996.44
2022-08-11T02:06:45.198Z,101990.31
2022-08-11T02:11:51.301Z,101990.38
2022-08-11T02:17:02.200Z,101989.44
2022-08-11T02:22:13.317Z,101985.97
2022-08-11T02:27:20.822Z,101986.88
2022-08-11T02:32:30.775Z,101984.41
2022-08-11T02:37:42.715Z,101986.19
2022-08-11T02:43:01.778Z,101979.19
2022-08-11T02:48:13.343Z,101982.75
2022-08-11T02:53:24.600Z,101976.66
2022-08-11T02:58:49.142Z,101976.66
2022-08-11T03:03:55.583Z,101972.31
2022-08-11T03:09:06.836Z,101978.59
2022-08-11T03:14:16.069Z,101979.56
2022-08-11T03:19:28.870Z,101975.09
2022-08-11T03:24:42.660Z,101972.44
2022-08-11T03:30:01.927Z,101973.47
2022-08-11T03:35:06.536Z,101985.06
2022-08-11T03:40:20.524Z,101986.81
2022-08-11T03:45:31.193Z,101983.25
2022-08-11T03:50:55.470Z,101978.84
2022-08-11T03:56:22.950Z,101985.06
2022-08-11T04:01:46.302Z,101969.09
2022-08-11T04:07:17.617Z,101977.97
2022-08-11T04:12:36.000Z,101967.25
2022-08-11T04:18:29.949Z,101976.13
2022-08-11T04:24:34.406Z,101981.44
2022-08-11T04:30:04.913Z,101977.78
2022-08-11T04:35:33.121Z,101986.59
2022-08-11T04:41:14.267Z,101988.28
2022-08-11T04:46:51.343Z,101991.72
2022-08-11T04:52:19.729Z,101991.56
2022-08-11T04:57:35.502Z,101997.28
2022-08-11T05:03:16.483Z,101989.31
2022-08-11T05:08:49.450Z,101997.63
2022-08-11T05:14:18.706Z,101996.06
2022-08-11T05:19:25.228Z,102007.09
2022-08-11T05:24:33.601Z,102009.31
2022-08-11T05:29:46.380Z,102006.88
2022-08-11T05:34:52.382Z,102016.00
2022-08-11T05:40:01.367Z,102008.75
2022-08-11T05:45:15.673Z,102012.91
2022-08-11T05:50:31.381Z,102019.28
2022-08-11T05:56:03.171Z,102023.09
2022-08-11T06:01:04.067Z,102030.50
2022-08-11T06:06:10.642Z,102023.97
2022-08-11T06:11:13.905Z,102028.31
2022-08-11T06:16:23.126Z,102017.75
2022-08-11T06:21:25.473Z,102037.53
2022-08-11T06:26:27.823Z,102026.47
2022-08-11T06:31:33.926Z,102024.13
2022-08-11T06:36:43.223Z,102028.94
2022-08-11T06:41:49.702Z,102026.56
2022-08-11T06:51:56.740Z,102032.72
2022-08-11T06:57:29.462Z,102029.66
2022-08-11T07:02:32.184Z,102024.88
2022-08-11T07:08:33.044Z,102023.22
2022-08-11T07:13:44.164Z,102017.72
2022-08-11T07:18:50.500Z,102001.69
2022-08-11T07:23:55.873Z,102011.28
2022-08-11T07:29:00.323Z,102003.44
2022-08-11T07:34:23.265Z,102002.47
2022-08-11T07:39:27.586Z,102006.31
2022-08-11T07:44:34.761Z,102010.50
2022-08-11T07:49:40.402Z,102000.97
2022-08-11T07:54:43.597Z,102006.59
2022-08-11T08:00:00.030Z,102006.31
2022-08-11T08:05:09.103Z,102000.59
2022-08-11T08:10:14.161Z,101994.94
2022-08-11T08:15:21.228Z,101988.47
2022-08-11T08:20:28.168Z,101993.31
2022-08-11T08:25:32.220Z,101985.78
2022-08-11T08:30:34.992Z,101995.69
2022-08-11T08:35:54.497Z,101989.91
2022-08-11T08:40:58.282Z,101988.47
2022-08-11T08:46:01.390Z,101985.38
2022-08-11T08:51:11.920Z,101987.16
2022-08-11T08:56:14.608Z,101976.34
2022-08-11T09:01:23.085Z,101984.66
2022-08-11T09:06:30.003Z,101977.22
2022-08-11T09:11:32.341Z,101973.13
2022-08-11T09:16:35.193Z,101984.22
2022-08-11T09:21:48.546Z,101982.50
2022-08-11T09:26:52.865Z,101975.59
2022-08-11T09:31:56.377Z,101975.19
2022-08-11T09:37:00.530Z,101967.19
2022-08-11T09:42:04.629Z,101963.25
2022-08-11T09:47:07.425Z,101955.59
2022-08-11T09:52:11.853Z,101955.88
2022-08-11T09:57:14.207Z,101952.47
2022-08-11T10:02:16.949Z,101935.53
2022-08-11T10:07:21.136Z,101935.00
2022-08-11T10:12:25.407Z,101939.59
2022-08-11T10:17:30.905Z,101933.19
2022-08-11T10:22:36.063Z,101932.75
2022-08-11T10:28:30.831Z,101932.78
2022-08-11T10:33:36.946Z,101919.72
2022-08-11T10:38:42.565Z,101912.50
2022-08-11T10:44:02.517Z,101916.06
2022-08-11T10:49:06.497Z,101915.09
2022-08-11T10:54:12.389Z,101910.72
2022-08-11T10:59:16.115Z,101890.69
2022-08-11T11:04:21.156Z,101881.03
2022-08-11T11:09:28.454Z,101872.53
2022-08-11T11:14:32.223Z,101873.41
2022-08-11T11:19:39.674Z,101870.50
2022-08-11T11:24:56.335Z,101863.88
2022-08-11T11:30:05.158Z,101865.34
2022-08-11T11:35:36.136Z,101851.63
2022-08-11T11:40:40.861Z,101844.63
2022-08-11T11:45:43.169Z,101855.34
2022-08-11T11:50:45.585Z,101852.59
2022-08-11T11:55:48.872Z,101843.19
2022-08-11T12:00:52.664Z,101853.41
2022-08-11T12:05:55.004Z,101830.28
2022-08-11T12:11:02.720Z,101825.47
2022-08-11T12:16:33.091Z,101829.91
2022-08-11T12:21:29.634Z,101816.78
2022-08-11T12:26:33.882Z,101812.00
2022-08-11T12:31:37.125Z,101803.94
2022-08-11T12:36:41.505Z,101795.72
2022-08-11T12:41:45.897Z,101800.63
2022-08-11T12:46:49.746Z,101786.19
2022-08-11T12:52:06.773Z,101788.22
2022-08-11T12:57:45.790Z,101777.41
2022-08-11T13:02:49.214Z,101771.94
2022-08-11T13:07:52.913Z,101772.34
2022-08-11T13:12:56.338Z,101775.97
2022-08-11T13:18:00.222Z,101763.44
2022-08-11T13:23:03.700Z,101749.34
2022-08-11T13:28:07.559Z,101750.41
2022-08-11T13:33:10.225Z,101752.41
2022-08-11T13:38:19.081Z,101744.28
2022-08-11T13:43:24.731Z,101746.97
2022-08-11T13:48:26.557Z,101736.91
2022-08-11T13:53:31.271Z,101732.47
2022-08-11T13:58:40.620Z,101731.69
2022-08-11T14:04:31.486Z,101719.19
2022-08-11T14:09:10.392Z,101717.03
2022-08-11T14:14:21.385Z,101708.53
2022-08-11T14:19:26.486Z,101710.25
2022-08-11T14:24:29.298Z,101711.66
2022-08-11T14:29:33.639Z,101698.28
2022-08-11T14:34:51.231Z,101682.38
2022-08-11T14:40:02.855Z,101695.69
2022-08-11T14:45:12.096Z,101687.53
2022-08-11T14:50:16.870Z,101681.34
2022-08-11T14:55:20.653Z,101683.75
2022-08-11T15:00:24.912Z,101684.06
2022-08-11T15:05:27.926Z,101685.03
2022-08-11T15:10:30.202Z,101677.22
2022-08-11T15:15:34.686Z,101676.09
2022-08-11T15:20:37.075Z,101664.97
2022-08-11T15:25:42.372Z,101661.38
2022-08-11T15:30:47.778Z,101656.09
2022-08-11T15:35:51.845Z,101653.47
2022-08-11T15:40:57.470Z,101651.03
2022-08-11T15:46:04.220Z,101651.75
2022-08-11T15:51:10.081Z,101660.38
2022-08-11T15:56:12.632Z,101655.81
2022-08-11T16:01:18.945Z,101640.09
2022-08-11T16:06:22.500Z,101636.47
2022-08-11T16:11:27.415Z,101629.72
2022-08-11T16:16:31.389Z,101628.28
2022-08-11T16:21:36.514Z,101631.50
2022-08-11T16:27:10.683Z,101634.19
2022-08-11T16:32:08.279Z,101620.28
2022-08-11T16:37:11.047Z,101632.78
2022-08-11T16:43:04.348Z,101625.22
2022-08-11T16:48:02.784Z,101620.94
2022-08-11T16:52:59.834Z,101627.53
2022-08-11T16:58:02.484Z,101621.97
2022-08-11T17:03:07.003Z,101619.22
2022-08-11T17:08:10.529Z,101627.88
2022-08-11T17:13:16.046Z,101623.59
2022-08-11T17:18:22.441Z,101620.19
2022-08-11T17:23:24.642Z,101615.59
2022-08-11T17:28:27.372Z,101628.66
2022-08-11T17:33:31.891Z,101637.13
2022-08-11T17:38:36.049Z,101626.88
2022-08-11T17:43:38.813Z,101621.09
2022-08-11T17:48:47.649Z,101629.22
2022-08-11T17:54:02.175Z,101628.03
2022-08-11T17:59:15.072Z,101633.22
2022-08-11T18:04:20.938Z,101620.00
2022-08-11T18:09:23.918Z,101628.66
2022-08-11T18:14:26.952Z,101634.75
2022-08-11T18:19:31.061Z,101635.91
2022-08-11T18:24:39.719Z,101639.38
2022-08-11T18:29:43.967Z,101635.31
2022-08-11T18:34:50.394Z,101651.34
2022-08-11T18:39:58.849Z,101653.81
2022-08-11T18:45:04.767Z,101654.25
2022-08-11T18:50:13.872Z,101661.56
2022-08-11T18:55:20.385Z,101664.72
2022-08-11T19:00:23.351Z,101668.13
2022-08-11T19:06:35.519Z,101670.69
2022-08-11T19:10:53.388Z,101670.31
2022-08-11T19:15:56.203Z,101672.00
2022-08-11T19:21:00.746Z,101668.66
2022-08-11T19:26:04.092Z,101686.03
2022-08-11T19:31:08.715Z,101679.50
2022-08-11T19:36:12.899Z,101672.91
2022-08-11T19:41:15.891Z,101675.16
2022-08-11T19:46:23.365Z,101676.75
2022-08-11T19:51:28.740Z,101678.94
2022-08-11T19:56:31.797Z,101675.69
2022-08-11T20:01:33.613Z,101676.94
2022-08-11T20:06:38.591Z,101670.63
2022-08-11T20:11:43.210Z,101675.78
2022-08-11T20:16:46.984Z,101676.69
2022-08-11T20:21:50.704Z,101679.03
2022-08-11T20:26:53.842Z,101688.69
2022-08-11T20:31:56.765Z,101684.94
2022-08-11T20:37:01.895Z,101693.78
2022-08-11T20:42:05.177Z,101694.28
2022-08-11T20:47:13.194Z,101700.19
2022-08-11T20:52:18.828Z,101704.03
2022-08-11T20:57:58.593Z,101706.28
2022-08-11T21:02:50.093Z,101711.31
2022-08-11T21:07:59.058Z,101714.25
2022-08-11T21:13:25.573Z,101719.84
2022-08-11T21:18:28.568Z,101714.63
2022-08-11T21:23:34.495Z,101717.97
2022-08-11T21:28:39.561Z,101718.50
2022-08-11T21:33:42.301Z,101725.19
2022-08-11T21:38:48.611Z,101724.94
2022-08-11T21:43:52.663Z,101729.88
2022-08-11T21:48:55.361Z,101731.28
2022-08-11T21:54:00.854Z,101739.34
2022-08-11T21:59:07.251Z,101736.34
2022-08-11T22:04:11.118Z,101738.47
2022-08-11T22:09:14.639Z,101732.75
2022-08-11T22:14:16.638Z,101722.78
2022-08-11T22:19:19.771Z,101728.75
2022-08-11T22:24:30.078Z,101732.25
2022-08-11T22:29:50.580Z,101730.22
2022-08-11T22:34:54.677Z,101729.00
2022-08-11T22:40:02.429Z,101737.59
2022-08-11T22:45:05.975Z,101731.13
2022-08-11T22:50:10.384Z,101739.22
2022-08-11T22:55:15.188Z,101746.81
2022-08-11T23:00:17.471Z,101744.59
2022-08-11T23:05:19.929Z,101750.44
2022-08-11T23:10:24.062Z,101751.75
2022-08-11T23:15:26.676Z,101756.78
2022-08-11T23:20:44.926Z,101749.41
2022-08-11T23:25:56.098Z,101748.00
2022-08-11T23:30:59.975Z,101742.97
2022-08-11T23:36:05.292Z,101754.75
2022-08-11T23:41:09.949Z,101753.22
2022-08-11T23:46:12.123Z,101761.56
2022-08-11T23:51:17.371Z,101757.22
2022-08-11T23:56:21.849Z,101756.63
